Time;durP1;ratioP1;P1;durP2;ratioP2;P2;SDS_P1;SDS_P2;PMS_P1;PMS_P2;Temp;Humidity;BMP_temperature;BMP_pressure;BME280_temperature;BME280_humidity;BME280_pressure;Samples;Min_cycle;Max_cycle;Signal;HPM_P1;HPM_P2
2023/08/30 04:06:31;;;;;;;5.10;4.03;;;12.70;99.90;;;;;;5174519;22;20532;-60
2023/08/30 04:08:57;;;;;;;6.30;5.00;;;12.70;99.90;;;;;;5037039;28;20419;-59
2023/08/30 04:11:23;;;;;;;6.47;5.80;;;12.70;99.90;;;;;;5037140;28;20181;-60
2023/08/30 04:13:49;;;;;;;5.37;4.87;;;12.80;99.90;;;;;;5036906;28;20256;-60
2023/08/30 04:16:14;;;;;;;6.30;5.17;;;12.80;99.90;;;;;;5037028;28;20410;-59
2023/08/30 04:18:40;;;;;;;8.50;4.50;;;12.80;99.90;;;;;;5037083;28;20185;-60
2023/08/30 04:21:08;;;;;;;5.90;4.47;;;12.80;99.90;;;;;;5036996;28;20243;-60
2023/08/30 04:23:33;;;;;;;6.00;4.87;;;12.80;99.90;;;;;;5036526;28;20212;-60
2023/08/30 04:25:59;;;;;;;5.90;4.63;;;12.80;99.90;;;;;;5036931;28;20438;-59
2023/08/30 04:28:26;;;;;;;6.37;5.10;;;12.80;99.90;;;;;;5019417;28;20185;-60
2023/08/30 04:30:54;;;;;;;7.10;5.50;;;12.80;99.90;;;;;;5019449;28;20191;-60
2023/08/30 04:33:20;;;;;;;5.90;4.60;;;12.90;99.90;;;;;;5036699;28;20401;-59
2023/08/30 04:35:53;;;;;;;5.40;4.77;;;12.90;99.90;;;;;;5035348;28;20438;-59
2023/08/30 04:38:19;;;;;;;5.77;5.17;;;12.90;99.90;;;;;;5036817;28;20166;-59
2023/08/30 04:40:45;;;;;;;7.43;6.63;;;12.90;99.90;;;;;;5036620;28;20469;-59
2023/08/30 04:43:11;;;;;;;8.23;6.07;;;12.90;99.90;;;;;;5036562;28;20370;-60
2023/08/30 04:45:37;;;;;;;7.73;6.90;;;12.90;99.90;;;;;;5036074;28;20793;-59
2023/08/30 04:48:03;;;;;;;9.10;5.77;;;12.90;99.90;;;;;;5036621;28;20595;-60
2023/08/30 04:50:28;;;;;;;6.53;5.93;;;12.90;99.90;;;;;;5036313;28;20177;-60
2023/08/30 04:52:54;;;;;;;6.47;5.40;;;13.00;99.90;;;;;;5036513;28;20863;-59
2023/08/30 04:55:19;;;;;;;7.47;6.13;;;13.00;99.90;;;;;;5036192;28;20237;-60
2023/08/30 04:57:47;;;;;;;7.27;5.90;;;13.00;99.90;;;;;;5036363;28;20271;-60
2023/08/30 05:00:14;;;;;;;4.73;4.33;;;13.00;99.90;;;;;;5036118;28;20658;-59
2023/08/30 05:02:40;;;;;;;7.10;5.90;;;13.00;99.90;;;;;;5035728;28;20439;-59
2023/08/30 05:05:07;;;;;;;5.27;4.70;;;13.00;99.90;;;;;;5035602;28;20817;-59
2023/08/30 05:07:32;;;;;;;5.53;4.80;;;13.00;99.90;;;;;;5035742;28;20445;-59
2023/08/30 05:09:58;;;;;;;7.43;5.83;;;13.10;99.90;;;;;;5036541;28;20429;-59
2023/08/30 05:12:23;;;;;;;6.90;5.00;;;13.10;99.90;;;;;;5028762;28;20645;-59
2023/08/30 05:14:49;;;;;;;7.40;6.37;;;13.10;99.90;;;;;;5031504;28;20681;-59
2023/08/30 05:17:14;;;;;;;6.87;6.17;;;13.10;99.90;;;;;;5016216;28;20189;-59
2023/08/30 05:19:40;;;;;;;6.60;6.00;;;13.20;99.90;;;;;;5016023;28;20247;-59
2023/08/30 05:22:06;;;;;;;6.97;6.10;;;13.20;99.90;;;;;;5015877;28;20525;-59
2023/08/30 05:24:31;;;;;;;6.27;5.20;;;13.20;99.90;;;;;;5015520;28;20173;-59
2023/08/30 05:26:57;;;;;;;7.73;6.90;;;13.20;99.90;;;;;;5016274;28;20189;-59
2023/08/30 05:29:22;;;;;;;5.90;5.30;;;13.30;99.90;;;;;;4998161;28;20272;-59
2023/08/30 05:31:48;;;;;;;6.30;4.73;;;13.30;99.90;;;;;;5015909;28;20264;-59
2023/08/30 05:34:13;;;;;;;6.27;5.60;;;13.30;99.90;;;;;;5015409;28;20213;-59
2023/08/30 05:36:39;;;;;;;6.80;5.13;;;13.40;99.90;;;;;;5015609;28;20209;-59
2023/08/30 05:39:05;;;;;;;7.20;6.37;;;13.40;99.90;;;;;;5015295;28;20531;-59
2023/08/30 05:41:31;;;;;;;5.80;4.90;;;13.50;99.90;;;;;;4998166;28;20184;-60
2023/08/30 05:43:56;;;;;;;7.80;5.43;;;13.50;99.90;;;;;;5015175;28;20417;-60
2023/08/30 05:46:22;;;;;;;8.43;5.33;;;13.50;99.90;;;;;;5015305;28;20201;-60
2023/08/30 05:48:48;;;;;;;6.63;5.13;;;13.50;99.90;;;;;;4998071;28;20181;-60
2023/08/30 05:51:13;;;;;;;7.23;6.27;;;13.60;99.90;;;;;;4997790;28;20192;-60
2023/08/30 05:53:39;;;;;;;7.90;6.10;;;13.70;99.90;;;;;;5014853;28;20640;-59
2023/08/30 05:56:05;;;;;;;7.10;5.60;;;13.80;99.90;;;;;;5015550;28;20230;-59
2023/08/30 05:58:30;;;;;;;5.57;4.27;;;13.80;99.90;;;;;;5015510;28;20193;-60
2023/08/30 06:00:57;;;;;;;8.40;6.57;;;13.90;99.90;;;;;;5015297;28;20216;-59
2023/08/30 06:03:22;;;;;;;9.00;5.80;;;13.90;99.90;;;;;;5015294;28;20254;-59
2023/08/30 06:05:48;;;;;;;6.77;6.13;;;14.00;99.90;;;;;;5014729;28;20528;-59
2023/08/30 06:08:14;;;;;;;5.60;4.97;;;14.00;99.90;;;;;;5015252;28;20210;-59
2023/08/30 06:10:40;;;;;;;7.60;6.03;;;14.00;99.90;;;;;;5015020;28;20842;-59
2023/08/30 06:13:05;;;;;;;8.10;5.13;;;14.00;99.90;;;;;;5014630;28;20424;-59
2023/08/30 06:15:31;;;;;;;9.17;5.90;;;14.00;99.90;;;;;;5014291;28;20198;-60
2023/08/30 06:17:58;;;;;;;5.23;4.67;;;14.00;99.90;;;;;;5015072;28;20183;-59
2023/08/30 06:20:24;;;;;;;7.23;5.83;;;14.00;99.90;;;;;;5015031;28;20591;-60
2023/08/30 06:22:49;;;;;;;7.50;5.90;;;14.10;99.90;;;;;;5014813;28;20417;-60
2023/08/30 06:25:15;;;;;;;6.90;6.23;;;14.10;99.90;;;;;;5014430;28;20194;-58
2023/08/30 06:27:58;;;;;;;6.23;5.63;;;14.20;99.90;;;;;;5024633;28;20221;-59
2023/08/30 06:30:25;;;;;;;8.43;6.53;;;14.20;99.90;;;;;;5013656;28;20255;-60
2023/08/30 06:32:51;;;;;;;10.13;6.93;;;14.20;99.90;;;;;;5013675;28;20414;-60
2023/08/30 06:35:16;;;;;;;7.67;6.80;;;14.30;99.90;;;;;;5013345;28;20448;-60
2023/08/30 06:37:42;;;;;;;5.53;4.93;;;14.20;99.90;;;;;;5014188;28;20240;-60
2023/08/30 06:40:08;;;;;;;7.57;6.57;;;14.30;99.90;;;;;;5014192;28;20195;-60
2023/08/30 06:42:33;;;;;;;5.80;5.00;;;14.30;99.90;;;;;;4996728;28;20202;-60
2023/08/30 06:44:59;;;;;;;5.30;4.80;;;14.40;99.90;;;;;;5014026;28;20408;-60
2023/08/30 06:47:24;;;;;;;5.80;5.20;;;14.40;99.90;;;;;;5014429;28;20724;-60
2023/08/30 06:49:50;;;;;;;7.33;5.90;;;14.40;99.90;;;;;;5014589;28;20175;-59
2023/08/30 06:52:16;;;;;;;7.83;6.40;;;14.50;99.90;;;;;;5014555;28;20189;-60
2023/08/30 06:54:41;;;;;;;8.43;6.73;;;14.50;99.90;;;;;;5013855;28;20197;-60
2023/08/30 06:57:07;;;;;;;6.73;6.03;;;14.70;99.90;;;;;;5014486;28;20265;-60
2023/08/30 06:59:32;;;;;;;5.93;5.33;;;14.80;99.90;;;;;;5014415;28;20223;-61
2023/08/30 07:01:58;;;;;;;5.70;5.10;;;14.90;99.90;;;;;;5014152;28;20266;-60
2023/08/30 07:04:25;;;;;;;7.80;5.63;;;14.90;99.90;;;;;;5013747;28;20298;-60
2023/08/30 07:06:51;;;;;;;6.63;5.93;;;14.90;99.90;;;;;;5014071;28;20437;-60
2023/08/30 07:09:16;;;;;;;6.60;5.73;;;15.00;99.90;;;;;;5014054;28;20176;-59
2023/08/30 07:11:47;;;;;;;6.87;6.20;;;15.10;99.90;;;;;;5014037;28;20954;-60
2023/08/30 07:14:13;;;;;;;5.97;4.97;;;15.10;99.90;;;;;;5013786;28;20181;-60
2023/08/30 07:16:39;;;;;;;7.10;6.37;;;15.10;99.90;;;;;;5013871;28;20409;-59
2023/08/30 07:19:05;;;;;;;6.83;5.80;;;15.10;99.90;;;;;;5014123;28;20411;-59
2023/08/30 07:21:31;;;;;;;7.10;5.50;;;15.30;99.90;;;;;;5013997;28;20448;-60
2023/08/30 07:23:56;;;;;;;6.77;5.93;;;15.40;99.90;;;;;;5013679;28;20547;-60
2023/08/30 07:26:22;;;;;;;5.00;4.60;;;15.50;99.90;;;;;;5013706;28;20192;-59
2023/08/30 07:28:47;;;;;;;6.37;5.20;;;15.60;99.90;;;;;;5013850;28;20187;-59
2023/08/30 07:31:15;;;;;;;6.80;6.10;;;15.80;99.90;;;;;;5013831;28;20266;-59
2023/08/30 07:33:41;;;;;;;5.23;4.73;;;15.80;99.90;;;;;;5013351;28;20180;-59
2023/08/30 07:36:08;;;;;;;5.67;4.90;;;15.90;99.90;;;;;;5013536;28;20431;-59
2023/08/30 07:38:34;;;;;;;5.07;4.57;;;16.00;99.90;;;;;;5013710;28;20208;-59
2023/08/30 07:41:00;;;;;;;4.23;3.90;;;16.00;99.90;;;;;;4996449;28;20517;-59
2023/08/30 07:43:26;;;;;;;5.30;4.73;;;16.10;99.90;;;;;;5013687;28;20847;-59
2023/08/30 07:45:51;;;;;;;5.20;4.37;;;16.10;99.90;;;;;;5013231;28;20240;-59
2023/08/30 07:48:17;;;;;;;4.87;4.47;;;16.30;99.90;;;;;;5013468;28;20602;-59
2023/08/30 07:50:43;;;;;;;5.23;4.73;;;16.40;99.90;;;;;;5013732;28;20228;-59
2023/08/30 07:53:09;;;;;;;4.67;4.27;;;16.40;99.90;;;;;;5013482;28;20183;-59
2023/08/30 07:55:36;;;;;;;4.47;4.13;;;16.50;99.90;;;;;;5013130;28;20206;-59
2023/08/30 07:58:02;;;;;;;4.97;3.90;;;16.60;99.90;;;;;;5013379;28;20767;-59
2023/08/30 08:00:29;;;;;;;4.07;3.67;;;16.60;99.90;;;;;;5013590;28;20467;-60
2023/08/30 08:02:54;;;;;;;3.87;3.57;;;16.50;99.90;;;;;;4995738;28;20408;-60
2023/08/30 08:05:20;;;;;;;3.70;3.40;;;16.50;99.90;;;;;;5013089;28;20825;-60
2023/08/30 08:07:52;;;;;;;4.10;3.20;;;16.60;99.90;;;;;;4995699;28;20194;-59
2023/08/30 08:10:18;;;;;;;3.80;3.50;;;16.50;99.90;;;;;;5013302;28;20484;-60
2023/08/30 08:12:43;;;;;;;2.60;2.40;;;16.60;99.90;;;;;;5013302;28;20474;-59
2023/08/30 08:15:09;;;;;;;2.60;2.40;;;16.50;99.90;;;;;;5012940;28;20433;-59
2023/08/30 08:17:35;;;;;;;3.37;3.07;;;16.60;99.90;;;;;;5013386;28;20185;-59
2023/08/30 08:20:01;;;;;;;3.63;3.33;;;16.70;99.90;;;;;;5013209;28;20431;-58
2023/08/30 08:22:26;;;;;;;2.70;2.50;;;16.70;99.90;;;;;;5013210;28;20178;-60
2023/08/30 08:24:53;;;;;;;3.87;3.47;;;16.70;99.90;;;;;;5012833;28;20608;-59
2023/08/30 08:27:19;;;;;;;3.30;2.97;;;16.80;99.90;;;;;;5013059;28;20206;-59
2023/08/30 08:29:44;;;;;;;2.80;2.60;;;16.80;99.90;;;;;;4995553;28;20391;-59
2023/08/30 08:32:10;;;;;;;3.10;2.90;;;16.80;99.90;;;;;;5013280;28;20568;-59
2023/08/30 08:34:36;;;;;;;2.83;2.63;;;16.90;99.90;;;;;;5012718;28;20175;-59
2023/08/30 08:37:01;;;;;;;3.30;2.60;;;16.90;99.90;;;;;;5013980;28;20198;-60
2023/08/30 08:39:27;;;;;;;2.50;2.40;;;17.00;99.90;;;;;;5016838;28;20228;-59
2023/08/30 08:41:54;;;;;;;2.80;2.60;;;17.00;99.90;;;;;;5016748;28;20221;-59
2023/08/30 08:44:22;;;;;;;2.70;2.57;;;17.10;99.90;;;;;;5016390;28;20163;-59
2023/08/30 08:46:49;;;;;;;2.70;2.47;;;17.20;99.90;;;;;;5016663;28;20388;-59
2023/08/30 08:49:16;;;;;;;2.20;2.10;;;17.40;99.90;;;;;;5017130;28;20388;-58
2023/08/30 08:51:43;;;;;;;2.87;2.67;;;17.50;99.90;;;;;;5016674;28;20392;-58
2023/08/30 08:54:10;;;;;;;2.90;2.70;;;17.70;99.90;;;;;;5016035;28;20406;-58
2023/08/30 08:56:36;;;;;;;2.83;2.53;;;17.90;99.90;;;;;;5021364;28;20419;-58
2023/08/30 08:59:02;;;;;;;2.30;2.10;;;18.10;99.90;;;;;;5017641;28;20380;-58
2023/08/30 09:01:28;;;;;;;1.83;1.73;;;18.20;99.90;;;;;;5019571;28;20482;-60
2023/08/30 09:03:54;;;;;;;2.20;2.10;;;18.40;99.90;;;;;;5028076;28;20807;-59
2023/08/30 09:06:22;;;;;;;2.10;1.97;;;18.50;99.90;;;;;;5017995;28;20424;-59
2023/08/30 09:08:47;;;;;;;2.63;2.43;;;18.60;99.90;;;;;;5035919;28;20409;-59
2023/08/30 09:11:13;;;;;;;1.80;1.70;;;18.80;99.90;;;;;;5035931;28;20399;-58
2023/08/30 09:13:39;;;;;;;2.30;2.20;;;18.90;99.90;;;;;;5035779;28;20241;-59
2023/08/30 09:16:22;;;;;;;2.07;1.90;;;19.10;99.90;;;;;;5036235;28;20767;-59
2023/08/30 09:19:02;;;;;;;1.57;1.47;;;19.40;99.90;;;;;;5035974;28;20187;-60
2023/08/30 09:21:28;;;;;;;2.00;1.90;;;19.70;99.90;;;;;;5017975;28;20434;-60
2023/08/30 09:24:04;;;;;;;2.20;2.10;;;20.00;99.90;;;;;;5035404;28;20392;-59
2023/08/30 09:26:32;;;;;;;1.90;1.80;;;20.40;99.90;;;;;;5018101;28;20198;-60
2023/08/30 09:29:03;;;;;;;2.10;1.90;;;21.20;99.90;;;;;;5035679;28;20383;-59
2023/08/30 09:31:37;;;;;;;2.20;2.10;;;22.20;99.90;;;;;;5035664;28;20411;-59
2023/08/30 09:34:03;;;;;;;2.10;2.00;;;23.00;99.90;;;;;;5034939;28;20760;-60
2023/08/30 09:36:35;;;;;;;1.60;1.50;;;23.60;99.90;;;;;;5035342;28;20460;-60
2023/08/30 09:39:12;;;;;;;2.60;2.40;;;24.40;99.90;;;;;;5035316;28;20793;-61
2023/08/30 09:41:41;;;;;;;1.87;1.70;;;25.10;99.90;;;;;;5035504;28;20774;-60
2023/08/30 09:44:12;;;;;;;2.20;2.10;;;25.60;99.90;;;;;;5035178;28;20401;-61
2023/08/30 09:46:45;;;;;;;2.20;1.93;;;26.30;99.90;;;;;;5035176;28;20433;-60
2023/08/30 09:49:11;;;;;;;3.00;2.27;;;26.70;99.10;;;;;;5034009;28;20891;-60
2023/08/30 09:51:42;;;;;;;1.93;1.83;;;27.00;98.80;;;;;;5033963;28;20463;-61
2023/08/30 09:54:15;;;;;;;2.13;2.03;;;27.20;97.70;;;;;;5034958;28;20488;-61
2023/08/30 09:56:42;;;;;;;4.27;2.20;;;27.30;96.00;;;;;;5034952;28;20425;-60
2023/08/30 09:59:12;;;;;;;2.20;2.10;;;27.50;95.80;;;;;;5034987;28;20416;-60
2023/08/30 10:01:39;;;;;;;2.23;2.10;;;27.70;95.70;;;;;;5035218;28;20420;-60
2023/08/30 10:04:08;;;;;;;1.80;1.70;;;28.00;94.10;;;;;;5035249;28;20371;-61
2023/08/30 10:06:36;;;;;;;1.60;1.50;;;28.20;94.00;;;;;;5034743;28;20452;-60
2023/08/30 10:09:03;;;;;;;2.50;2.30;;;28.40;92.60;;;;;;5034899;28;20503;-60
2023/08/30 10:11:32;;;;;;;2.63;2.43;;;28.40;93.30;;;;;;5034838;28;20485;-60
2023/08/30 10:13:59;;;;;;;1.70;1.60;;;28.20;94.10;;;;;;5034642;28;20850;-60
2023/08/30 10:16:27;;;;;;;1.80;1.70;;;28.00;94.00;;;;;;5034892;28;20790;-61
2023/08/30 10:19:02;;;;;;;1.90;1.80;;;27.70;94.50;;;;;;5034723;28;20419;-60
2023/08/30 10:21:30;;;;;;;1.87;1.77;;;27.60;95.00;;;;;;5034664;28;20977;-60
2023/08/30 10:23:57;;;;;;;2.00;1.87;;;27.40;93.10;;;;;;5034428;28;20535;-59
2023/08/30 10:26:26;;;;;;;2.40;2.07;;;27.30;93.90;;;;;;5034443;28;20410;-59
2023/08/30 10:28:57;;;;;;;1.90;1.80;;;27.30;93.90;;;;;;5034506;28;20386;-59
2023/08/30 10:31:22;;;;;;;3.17;1.40;;;27.30;93.60;;;;;;5034283;28;20409;-59
2023/08/30 10:33:53;;;;;;;1.90;1.80;;;27.30;92.90;;;;;;5033968;28;20432;-59
2023/08/30 10:36:23;;;;;;;2.00;1.90;;;27.30;93.00;;;;;;5034320;28;20218;-59
2023/08/30 10:38:55;;;;;;;2.20;1.87;;;27.30;93.80;;;;;;5034485;28;20771;-59
2023/08/30 10:41:24;;;;;;;2.37;2.20;;;27.20;92.70;;;;;;5034427;28;20461;-59
2023/08/30 10:43:52;;;;;;;3.60;2.50;;;27.10;92.80;;;;;;5034079;28;20409;-59
2023/08/30 10:46:28;;;;;;;2.10;2.00;;;27.00;93.10;;;;;;5034123;28;20791;-59
2023/08/30 10:48:55;;;;;;;1.87;1.70;;;27.10;94.10;;;;;;5034148;28;20428;-59
2023/08/30 10:51:35;;;;;;;1.77;1.67;;;27.20;94.30;;;;;;5034374;28;20503;-59
2023/08/30 10:54:00;;;;;;;1.87;1.77;;;27.20;93.20;;;;;;5034004;28;20935;-60
2023/08/30 10:56:30;;;;;;;2.03;1.93;;;27.20;92.10;;;;;;5033640;28;20456;-60
2023/08/30 10:58:56;;;;;;;1.70;1.60;;;27.10;92.80;;;;;;5033673;28;20533;-60
2023/08/30 11:01:23;;;;;;;1.97;1.87;;;27.00;91.70;;;;;;5033148;28;20445;-60
2023/08/30 11:03:50;;;;;;;2.03;1.93;;;26.40;91.90;;;;;;5033202;28;20409;-61
2023/08/30 11:06:17;;;;;;;1.60;1.50;;;26.00;93.50;;;;;;5033282;28;20834;-60
2023/08/30 11:08:43;;;;;;;1.80;1.70;;;25.80;94.10;;;;;;5032935;28;20429;-59
2023/08/30 11:11:14;;;;;;;1.50;1.40;;;25.80;95.10;;;;;;5033445;28;20425;-61
2023/08/30 11:13:40;;;;;;;1.47;1.47;;;25.70;93.70;;;;;;5033188;28;20476;-60
2023/08/30 11:16:05;;;;;;;1.40;1.30;;;25.60;93.60;;;;;;5033005;28;20515;-60
2023/08/30 11:18:38;;;;;;;1.30;1.30;;;25.40;94.10;;;;;;5033132;28;20178;-61
2023/08/30 11:21:04;;;;;;;1.73;1.63;;;25.30;93.60;;;;;;5033218;28;20218;-61
2023/08/30 11:23:30;;;;;;;1.73;1.63;;;25.20;94.50;;;;;;5033295;28;20420;-60
2023/08/30 11:25:55;;;;;;;2.00;1.90;;;24.90;94.40;;;;;;5032903;28;20942;-60
2023/08/30 11:28:25;;;;;;;1.77;1.67;;;24.70;94.70;;;;;;5033183;28;20650;-59
2023/08/30 11:30:55;;;;;;;1.10;1.10;;;24.00;94.80;;;;;;5033123;28;20595;-59
2023/08/30 11:33:23;;;;;;;1.70;1.60;;;23.80;94.60;;;;;;5033253;28;20800;-59
2023/08/30 11:35:51;;;;;;;1.80;1.70;;;23.80;94.00;;;;;;5032538;28;20462;-59
2023/08/30 11:38:18;;;;;;;1.60;1.50;;;23.60;95.70;;;;;;5033111;28;20410;-59
2023/08/30 11:40:44;;;;;;;1.63;1.53;;;23.60;96.20;;;;;;5032777;28;20460;-61
2023/08/30 11:43:10;;;;;;;1.60;1.50;;;23.60;95.40;;;;;;5032981;28;20455;-60
2023/08/30 11:45:36;;;;;;;1.60;1.50;;;23.50;96.20;;;;;;5032423;28;20441;-60
2023/08/30 11:48:02;;;;;;;1.40;1.30;;;23.40;96.10;;;;;;5033003;28;20384;-60
2023/08/30 11:50:29;;;;;;;1.77;1.67;;;23.30;97.00;;;;;;5032727;28;20169;-60
2023/08/30 11:52:55;;;;;;;1.20;1.20;;;23.40;98.20;;;;;;5032583;28;20933;-60
2023/08/30 11:55:21;;;;;;;1.23;1.20;;;23.20;96.50;;;;;;5032126;28;20920;-60
2023/08/30 11:57:50;;;;;;;1.30;1.30;;;23.20;97.10;;;;;;5032559;28;20391;-59
2023/08/30 12:00:19;;;;;;;1.70;1.30;;;23.30;96.20;;;;;;5032661;28;20449;-60
2023/08/30 12:02:46;;;;;;;1.37;1.27;;;23.20;96.20;;;;;;5032557;28;20380;-59
2023/08/30 12:05:15;;;;;;;1.50;1.40;;;23.10;96.30;;;;;;5032479;28;20399;-65
2023/08/30 12:07:41;;;;;;;1.50;1.40;;;22.90;96.50;;;;;;5015015;28;20764;-59
2023/08/30 12:10:11;;;;;;;1.70;1.60;;;22.60;97.10;;;;;;5014650;28;20416;-60
2023/08/30 12:12:37;;;;;;;1.30;1.30;;;22.30;97.50;;;;;;5034551;28;20168;-60
2023/08/30 12:15:13;;;;;;;1.90;1.80;;;21.90;98.90;;;;;;5036302;28;20676;-60
2023/08/30 12:17:38;;;;;;;1.90;1.80;;;21.40;99.90;;;;;;5036610;28;20443;-59
2023/08/30 12:20:04;;;;;;;2.70;2.10;;;20.80;99.90;;;;;;5036198;28;20415;-60
2023/08/30 12:22:40;;;;;;;2.50;2.37;;;20.30;99.90;;;;;;5036042;28;20250;-59
2023/08/30 12:25:21;;;;;;;1.50;1.40;;;19.90;99.90;;;;;;5035677;28;20730;-58
2023/08/30 12:27:47;;;;;;;2.47;2.37;;;19.50;99.90;;;;;;5036083;28;20388;-59
2023/08/30 12:30:16;;;;;;;3.30;2.60;;;19.10;99.90;;;;;;5036151;28;20559;-59
2023/08/30 12:32:42;;;;;;;2.30;2.20;;;19.00;99.90;;;;;;5018383;28;20496;-60
2023/08/30 12:35:08;;;;;;;1.90;1.80;;;19.00;99.90;;;;;;5035382;28;20429;-60
2023/08/30 12:37:34;;;;;;;2.40;2.20;;;19.00;99.90;;;;;;5035498;28;20424;-61
2023/08/30 12:40:00;;;;;;;1.80;1.70;;;19.00;99.90;;;;;;5035425;28;20852;-59
2023/08/30 12:42:26;;;;;;;2.13;2.03;;;19.10;99.90;;;;;;5035717;28;20413;-60
2023/08/30 12:44:52;;;;;;;1.93;1.83;;;19.20;99.90;;;;;;5035258;28;20335;-60
2023/08/30 12:47:17;;;;;;;1.80;1.70;;;19.20;99.90;;;;;;5035624;28;20408;-59
2023/08/30 12:49:43;;;;;;;1.33;1.33;;;19.20;99.90;;;;;;5035690;28;20178;-61
2023/08/30 12:52:08;;;;;;;1.50;1.43;;;19.20;99.90;;;;;;5035108;28;20179;-60
2023/08/30 12:54:34;;;;;;;1.10;1.10;;;19.20;99.90;;;;;;5034617;28;20537;-59
2023/08/30 12:56:59;;;;;;;1.80;1.70;;;19.10;99.90;;;;;;5034369;28;20192;-59
2023/08/30 12:59:25;;;;;;;1.13;1.03;;;19.10;99.90;;;;;;5035306;28;20173;-60
2023/08/30 13:01:50;;;;;;;1.90;1.80;;;19.10;99.90;;;;;;5035427;28;20176;-59
2023/08/30 13:04:16;;;;;;;1.50;1.40;;;19.10;99.90;;;;;;5033419;28;20171;-60
2023/08/30 13:06:42;;;;;;;1.40;1.37;;;19.10;99.90;;;;;;5033006;28;20210;-60
2023/08/30 13:09:07;;;;;;;1.10;1.10;;;19.10;99.90;;;;;;5033360;28;20174;-60
2023/08/30 13:11:33;;;;;;;1.67;1.57;;;19.20;99.90;;;;;;5033409;28;20791;-60
2023/08/30 13:13:58;;;;;;;1.10;1.10;;;19.20;99.90;;;;;;5033325;28;20182;-60
2023/08/30 13:16:24;;;;;;;1.00;1.00;;;19.40;99.90;;;;;;5033155;28;20209;-60
2023/08/30 13:18:50;;;;;;;1.40;1.20;;;19.60;99.90;;;;;;5034058;28;20211;-59
2023/08/30 13:21:16;;;;;;;1.30;1.20;;;19.80;99.90;;;;;;5035168;28;20440;-60
2023/08/30 13:23:41;;;;;;;1.27;1.20;;;20.00;99.90;;;;;;5034656;28;20209;-59
2023/08/30 13:26:07;;;;;;;1.50;1.40;;;20.30;99.90;;;;;;5034991;28;20198;-60
2023/08/30 13:28:34;;;;;;;1.37;1.27;;;20.50;99.90;;;;;;5017864;28;20582;-61
2023/08/30 13:31:00;;;;;;;1.60;1.10;;;20.60;99.90;;;;;;5035310;28;20212;-60
2023/08/30 13:33:27;;;;;;;0.93;0.90;;;20.70;99.90;;;;;;5035190;28;20395;-60
2023/08/30 13:35:52;;;;;;;1.20;1.20;;;20.80;99.90;;;;;;5035018;28;20414;-59
2023/08/30 13:38:18;;;;;;;1.07;1.07;;;20.80;99.90;;;;;;5035081;28;20409;-60
2023/08/30 13:40:45;;;;;;;0.90;0.83;;;20.80;99.90;;;;;;5034869;28;20196;-59
2023/08/30 13:43:10;;;;;;;0.80;0.80;;;20.90;99.90;;;;;;5034659;28;20396;-59
2023/08/30 13:45:36;;;;;;;1.00;1.00;;;20.90;99.90;;;;;;5034447;28;20898;-61
2023/08/30 13:48:02;;;;;;;0.83;0.83;;;21.00;99.90;;;;;;5034776;28;20172;-59
2023/08/30 13:50:30;;;;;;;0.83;0.83;;;21.00;99.90;;;;;;5034716;28;20170;-60
2023/08/30 13:52:59;;;;;;;1.07;1.07;;;21.00;99.90;;;;;;5035107;28;20200;-59
2023/08/30 13:55:25;;;;;;;1.30;1.20;;;21.00;99.90;;;;;;5034195;28;20440;-61
2023/08/30 13:57:51;;;;;;;1.30;1.20;;;21.00;99.90;;;;;;5034359;28;20383;-61
2023/08/30 14:00:17;;;;;;;0.87;0.87;;;21.10;99.90;;;;;;5034488;28;20198;-60
2023/08/30 14:02:42;;;;;;;1.43;1.20;;;21.20;99.90;;;;;;5034513;28;20413;-61
2023/08/30 14:05:08;;;;;;;0.87;0.87;;;21.30;99.90;;;;;;5034181;28;20193;-59
2023/08/30 14:07:34;;;;;;;1.17;1.17;;;21.40;99.90;;;;;;5034541;28;20190;-61
2023/08/30 14:10:00;;;;;;;0.70;0.70;;;21.50;99.90;;;;;;5034349;28;20464;-59
2023/08/30 14:12:25;;;;;;;2.83;1.00;;;21.60;99.90;;;;;;5034196;28;20182;-60
2023/08/30 14:14:52;;;;;;;5.13;1.10;;;21.70;99.80;;;;;;5034039;28;20228;-59
2023/08/30 14:17:18;;;;;;;1.17;1.13;;;21.70;99.70;;;;;;5017120;28;20188;-60
2023/08/30 14:19:44;;;;;;;1.73;1.63;;;21.70;99.90;;;;;;5034355;28;20464;-59
2023/08/30 14:22:09;;;;;;;1.20;1.10;;;21.70;99.90;;;;;;5034639;28;20513;-60
2023/08/30 14:24:35;;;;;;;0.70;0.70;;;21.70;99.90;;;;;;5033553;28;20254;-59
2023/08/30 14:27:01;;;;;;;1.10;1.10;;;21.70;99.90;;;;;;5034277;28;20204;-61
2023/08/30 14:29:26;;;;;;;1.30;1.20;;;21.70;99.90;;;;;;5034477;28;20173;-60
2023/08/30 14:31:52;;;;;;;1.37;1.20;;;21.80;99.90;;;;;;5034334;28;20174;-60
2023/08/30 14:34:17;;;;;;;1.50;1.40;;;21.80;99.90;;;;;;5015614;28;20173;-60
2023/08/30 14:36:43;;;;;;;1.60;1.50;;;21.80;99.80;;;;;;5034204;28;20199;-60
2023/08/30 14:39:09;;;;;;;1.40;1.30;;;21.80;98.20;;;;;;5034128;28;20185;-60
2023/08/30 14:41:38;;;;;;;0.90;0.87;;;21.70;98.10;;;;;;5018166;28;20270;-60
2023/08/30 14:44:04;;;;;;;1.30;1.20;;;21.70;98.50;;;;;;5034837;28;20388;-60
2023/08/30 14:46:30;;;;;;;0.67;0.67;;;21.60;98.70;;;;;;5036344;28;20441;-60
2023/08/30 14:48:56;;;;;;;1.60;0.97;;;21.70;99.30;;;;;;5036340;28;20427;-60
2023/08/30 14:51:21;;;;;;;0.80;0.80;;;21.60;99.50;;;;;;5037013;28;20181;-60
2023/08/30 14:53:47;;;;;;;0.70;0.70;;;21.40;99.90;;;;;;5034414;28;20217;-60
2023/08/30 14:56:13;;;;;;;0.80;0.80;;;21.20;99.90;;;;;;5036226;28;20649;-60
2023/08/30 14:58:38;;;;;;;1.47;1.10;;;21.10;99.90;;;;;;5034623;28;20182;-61
2023/08/30 15:01:04;;;;;;;1.60;1.50;;;21.10;99.90;;;;;;5034250;28;20202;-61
2023/08/30 15:03:30;;;;;;;1.63;1.40;;;21.00;99.90;;;;;;5033645;28;20170;-61
2023/08/30 15:05:57;;;;;;;0.90;0.90;;;20.80;99.90;;;;;;5033806;28;20419;-61
2023/08/30 15:08:23;;;;;;;1.47;1.37;;;20.60;99.90;;;;;;5033657;28;20625;-61
2023/08/30 15:10:51;;;;;;;0.77;0.77;;;20.40;99.90;;;;;;5033668;28;20434;-61
2023/08/30 15:13:17;;;;;;;1.00;1.00;;;20.30;99.90;;;;;;5033886;28;20420;-60
2023/08/30 15:15:43;;;;;;;1.07;1.07;;;20.30;99.90;;;;;;5033164;28;21031;-60
2023/08/30 15:18:10;;;;;;;1.43;1.33;;;20.20;99.90;;;;;;5033943;28;20391;-60
2023/08/30 15:20:35;;;;;;;1.10;1.10;;;20.20;99.90;;;;;;5033792;28;20207;-60
2023/08/30 15:23:01;;;;;;;1.27;1.27;;;20.10;99.90;;;;;;5033362;28;20424;-60
2023/08/30 15:25:26;;;;;;;1.60;1.50;;;20.10;99.90;;;;;;5033472;28;20261;-60
2023/08/30 15:27:52;;;;;;;1.30;1.30;;;20.00;99.90;;;;;;5033721;28;20173;-60
2023/08/30 15:30:18;;;;;;;2.90;2.60;;;20.00;99.90;;;;;;5033493;28;20261;-60
2023/08/30 15:32:44;;;;;;;1.60;1.30;;;20.00;99.90;;;;;;5031558;28;20189;-60
2023/08/30 15:35:12;;;;;;;1.13;1.13;;;20.10;99.90;;;;;;5017344;28;20815;-62
2023/08/30 15:37:38;;;;;;;0.93;0.93;;;20.10;99.90;;;;;;5033460;28;20181;-59
2023/08/30 15:40:05;;;;;;;1.00;1.00;;;20.30;99.90;;;;;;5026648;28;20457;-60
2023/08/30 15:42:34;;;;;;;1.20;1.20;;;20.30;99.90;;;;;;5013590;28;20659;-60
2023/08/30 15:45:06;;;;;;;1.20;1.20;;;20.50;99.90;;;;;;5013459;28;20475;-59
2023/08/30 15:47:32;;;;;;;1.70;1.60;;;20.60;99.90;;;;;;5013719;28;20389;-60
2023/08/30 15:49:57;;;;;;;1.07;1.03;;;20.60;99.90;;;;;;5017914;28;20411;-60
2023/08/30 15:52:23;;;;;;;1.07;1.07;;;20.60;99.90;;;;;;5033237;28;20189;-62
2023/08/30 15:54:48;;;;;;;0.87;0.87;;;20.60;99.90;;;;;;5032968;28;20233;-63
2023/08/30 15:57:14;;;;;;;1.37;1.27;;;20.60;99.90;;;;;;5033218;28;20178;-63
2023/08/30 15:59:40;;;;;;;1.77;1.67;;;20.60;99.90;;;;;;5033413;28;20257;-62
2023/08/30 16:02:05;;;;;;;1.40;1.23;;;20.60;99.90;;;;;;5033190;28;20215;-64
2023/08/30 16:04:31;;;;;;;0.80;0.80;;;20.70;99.90;;;;;;5032476;28;20171;-63
2023/08/30 16:06:56;;;;;;;1.63;1.43;;;20.60;99.90;;;;;;5033062;28;20186;-63
2023/08/30 16:09:22;;;;;;;1.13;1.13;;;20.60;99.90;;;;;;5033226;28;20181;-63
2023/08/30 16:11:48;;;;;;;1.57;1.47;;;20.50;99.90;;;;;;5032943;28;20267;-65
2023/08/30 16:14:13;;;;;;;1.60;1.50;;;20.40;99.90;;;;;;5032949;28;20189;-62
2023/08/30 16:16:39;;;;;;;2.20;1.20;;;20.40;99.90;;;;;;5015183;28;20190;-63
2023/08/30 16:19:05;;;;;;;1.47;1.37;;;20.40;99.90;;;;;;5032904;28;20182;-59
2023/08/30 16:21:31;;;;;;;1.10;1.10;;;20.40;99.90;;;;;;5032625;28;20197;-61
2023/08/30 16:23:57;;;;;;;1.00;1.00;;;20.30;99.90;;;;;;5032717;28;20383;-61
2023/08/30 16:26:23;;;;;;;1.37;1.30;;;20.20;99.90;;;;;;5032795;28;20813;-59
2023/08/30 16:28:48;;;;;;;1.30;1.30;;;20.10;99.90;;;;;;5015125;28;20178;-62
2023/08/30 16:31:14;;;;;;;2.00;1.83;;;20.10;99.90;;;;;;5032831;28;20236;-60
2023/08/30 16:33:39;;;;;;;1.47;1.37;;;20.00;99.90;;;;;;5032238;28;20730;-61
2023/08/30 16:36:05;;;;;;;2.00;1.80;;;19.90;99.90;;;;;;5032110;28;20202;-61
2023/08/30 16:38:32;;;;;;;1.40;1.30;;;19.80;99.90;;;;;;5032742;28;20328;-60
2023/08/30 16:41:03;;;;;;;1.77;1.67;;;19.70;99.90;;;;;;5014326;28;20276;-61
2023/08/30 16:43:29;;;;;;;1.50;1.40;;;19.60;99.90;;;;;;5030537;28;20420;-62
2023/08/30 16:45:57;;;;;;;1.17;1.00;;;19.50;99.90;;;;;;5032683;28;20400;-59
2023/08/30 16:48:23;;;;;;;1.43;1.43;;;19.40;99.90;;;;;;5033009;28;20487;-59
2023/08/30 16:50:50;;;;;;;1.40;1.30;;;19.40;99.90;;;;;;5014467;28;20488;-59